createdAt,value
2022-08-10T00:01:51.861Z,22.67
2022-08-10T00:04:22.096Z,22.66
2022-08-10T00:06:52.452Z,22.50
2022-08-10T00:09:20.698Z,22.41
2022-08-10T00:11:48.810Z,22.36
2022-08-10T00:14:17.148Z,22.38
2022-08-10T00:16:46.655Z,22.42
2022-08-10T00:19:16.414Z,22.34
2022-08-10T00:21:45.625Z,22.27
2022-08-10T00:24:13.994Z,22.22
2022-08-10T00:27:57.914Z,22.18
2022-08-10T00:29:30.387Z,22.13
2022-08-10T00:31:59.957Z,22.04
2022-08-10T00:34:28.577Z,21.97
2022-08-10T00:36:56.791Z,21.89
2022-08-10T00:39:25.185Z,21.85
2022-08-10T00:42:07.005Z,21.81
2022-08-10T00:44:37.194Z,21.80
2022-08-10T00:47:22.578Z,21.79
2022-08-10T00:49:56.180Z,21.73
2022-08-10T00:52:25.338Z,21.72
2022-08-10T00:54:54.095Z,21.73
2022-08-10T00:57:22.325Z,21.72
2022-08-10T00:59:58.689Z,21.67
2022-08-10T01:02:32.159Z,21.61
2022-08-10T01:05:03.643Z,21.54
2022-08-10T01:07:49.258Z,21.56
2022-08-10T01:10:30.813Z,21.51
2022-08-10T01:13:06.096Z,21.46
2022-08-10T01:15:43.174Z,21.44
2022-08-10T01:18:19.616Z,21.36
2022-08-10T01:21:00.088Z,21.28
2022-08-10T01:24:02.303Z,21.30
2022-08-10T01:26:50.818Z,21.26
2022-08-10T01:29:43.234Z,21.22
2022-08-10T01:32:15.085Z,21.26
2022-08-10T01:34:50.648Z,21.25
2022-08-10T01:37:23.829Z,21.22
2022-08-10T01:39:58.801Z,21.20
2022-08-10T01:42:29.174Z,21.25
2022-08-10T01:45:03.524Z,21.20
2022-08-10T01:47:53.624Z,21.20
2022-08-10T01:50:27.915Z,21.19
2022-08-10T01:53:06.235Z,21.15
2022-08-10T01:55:36.126Z,21.17
2022-08-10T01:58:07.845Z,21.19
2022-08-10T02:00:40.964Z,21.16
2022-08-10T02:03:11.958Z,21.15
2022-08-10T02:05:42.923Z,21.19
2022-08-10T02:08:15.360Z,21.24
2022-08-10T02:10:46.539Z,21.30
2022-08-10T02:13:19.029Z,21.25
2022-08-10T02:16:01.275Z,21.15
2022-08-10T02:18:32.521Z,21.09
2022-08-10T02:21:04.410Z,20.95
2022-08-10T02:23:35.650Z,20.85
2022-08-10T02:26:06.045Z,20.80
2022-08-10T02:28:37.362Z,20.78
2022-08-10T02:31:11.806Z,20.76
2022-08-10T02:33:56.585Z,20.77
2022-08-10T02:36:29.001Z,20.74
2022-08-10T02:39:01.412Z,20.63
2022-08-10T02:45:01.474Z,20.59
2022-08-10T02:45:23.253Z,20.55
2022-08-10T02:47:29.550Z,20.49
2022-08-10T02:50:26.917Z,20.50
2022-08-10T02:53:06.451Z,20.46
2022-08-10T02:55:41.737Z,20.46
2022-08-10T02:58:18.261Z,20.44
2022-08-10T03:00:52.265Z,20.41
2022-08-10T03:03:26.378Z,20.41
2022-08-10T03:05:58.446Z,20.40
2022-08-10T03:08:31.932Z,20.40
2022-08-10T03:11:04.069Z,20.43
2022-08-10T03:13:34.925Z,20.43
2022-08-10T03:16:04.859Z,20.38
2022-08-10T03:18:35.414Z,20.38
2022-08-10T03:21:06.820Z,20.35
2022-08-10T03:23:40.099Z,20.32
2022-08-10T03:26:09.473Z,20.34
2022-08-10T03:28:37.924Z,20.33
2022-08-10T03:31:06.299Z,20.32
2022-08-10T03:33:44.723Z,20.29
2022-08-10T03:36:40.133Z,20.28
2022-08-10T03:39:01.540Z,20.28
2022-08-10T03:41:35.634Z,20.27
2022-08-10T03:44:06.148Z,20.25
2022-08-10T03:46:36.974Z,20.24
2022-08-10T03:49:08.271Z,20.26
2022-08-10T03:51:38.358Z,20.25
2022-08-10T03:54:07.569Z,20.31
2022-08-10T03:56:41.107Z,20.32
2022-08-10T03:59:12.028Z,20.28
2022-08-10T04:02:43.754Z,20.31
2022-08-10T04:04:30.632Z,20.34
2022-08-10T04:07:00.542Z,20.35
2022-08-10T04:09:53.639Z,20.33
2022-08-10T04:12:18.606Z,20.35
2022-08-10T04:14:51.098Z,20.41
2022-08-10T04:18:02.637Z,20.46
2022-08-10T04:20:17.980Z,20.52
2022-08-10T04:22:49.964Z,20.57
2022-08-10T04:25:19.260Z,20.65
2022-08-10T04:27:48.559Z,20.67
2022-08-10T04:30:16.985Z,20.64
2022-08-10T04:32:47.960Z,20.64
2022-08-10T04:35:20.139Z,20.65
2022-08-10T04:37:50.705Z,20.66
2022-08-10T04:40:28.424Z,20.72
2022-08-10T04:43:01.241Z,20.75
2022-08-10T04:45:48.972Z,20.72
2022-08-10T04:48:42.891Z,20.72
2022-08-10T04:51:19.495Z,20.72
2022-08-10T04:54:04.863Z,20.76
2022-08-10T04:56:37.877Z,20.83
2022-08-10T04:59:07.367Z,20.90
2022-08-10T05:02:22.051Z,20.86
2022-08-10T05:04:34.422Z,20.90
2022-08-10T05:07:08.728Z,20.95
2022-08-10T05:10:04.836Z,21.02
2022-08-10T05:12:25.371Z,21.02
2022-08-10T05:14:54.756Z,21.03
2022-08-10T05:17:23.706Z,21.03
2022-08-10T05:20:03.943Z,21.15
2022-08-10T05:22:37.622Z,21.10
2022-08-10T05:25:08.448Z,21.15
2022-08-10T05:27:41.762Z,21.22
2022-08-10T05:30:13.421Z,21.35
2022-08-10T05:32:55.508Z,21.41
2022-08-10T05:35:52.403Z,21.34
2022-08-10T05:38:19.707Z,21.42
2022-08-10T05:40:49.040Z,21.42
2022-08-10T05:43:19.334Z,21.49
2022-08-10T05:46:18.431Z,21.52
2022-08-10T05:48:41.852Z,21.52
2022-08-10T05:51:29.351Z,21.78
2022-08-10T05:54:04.162Z,21.89
2022-08-10T05:56:56.138Z,21.63
2022-08-10T06:00:33.915Z,21.75
2022-08-10T06:02:31.817Z,21.69
2022-08-10T06:05:06.972Z,21.76
2022-08-10T06:07:40.406Z,21.86
2022-08-10T06:10:14.081Z,21.98
2022-08-10T06:13:30.173Z,22.08
2022-08-10T06:16:05.442Z,22.09
2022-08-10T06:18:33.990Z,22.21
2022-08-10T06:21:02.873Z,22.28
2022-08-10T06:23:32.325Z,22.23
2022-08-10T06:26:11.213Z,22.20
2022-08-10T06:29:02.456Z,22.33
2022-08-10T06:31:46.904Z,22.31
2022-08-10T06:34:22.149Z,22.43
2022-08-10T06:36:51.311Z,22.53
2022-08-10T06:39:36.142Z,22.69
2022-08-10T06:42:16.676Z,22.79
2022-08-10T06:44:59.005Z,22.93
2022-08-10T06:47:32.327Z,22.95
2022-08-10T06:50:04.915Z,22.99
2022-08-10T06:52:38.554Z,22.99
2022-08-10T06:55:10.645Z,23.04
2022-08-10T06:57:42.456Z,23.13
2022-08-10T07:00:18.359Z,23.04
2022-08-10T07:02:52.844Z,23.14
2022-08-10T07:05:23.473Z,23.22
2022-08-10T07:07:53.684Z,23.31
2022-08-10T07:10:25.224Z,23.41
2022-08-10T07:13:13.135Z,23.36
2022-08-10T07:15:57.060Z,23.47
2022-08-10T07:18:31.928Z,23.60
2022-08-10T07:21:02.146Z,23.63
2022-08-10T07:23:57.741Z,23.72
2022-08-10T07:26:21.745Z,23.82
2022-08-10T07:28:52.091Z,23.90
2022-08-10T07:31:54.861Z,24.00
2022-08-10T07:34:11.412Z,24.01
2022-08-10T07:36:41.648Z,24.05
2022-08-10T07:39:11.587Z,24.18
2022-08-10T07:41:42.808Z,24.35
2022-08-10T07:44:14.005Z,24.50
2022-08-10T07:46:47.057Z,24.69
2022-08-10T07:49:20.824Z,24.80
2022-08-10T07:51:54.514Z,24.74
2022-08-10T07:54:26.396Z,24.80
2022-08-10T07:57:00.755Z,24.92
2022-08-10T07:59:38.113Z,24.98
2022-08-10T08:02:09.265Z,24.84
2022-08-10T08:04:37.917Z,24.72
2022-08-10T08:07:08.594Z,24.73
2022-08-10T08:09:38.316Z,24.81
2022-08-10T08:12:27.758Z,24.83
2022-08-10T08:14:59.998Z,24.88
2022-08-10T08:17:36.342Z,24.74
2022-08-10T08:20:07.481Z,24.73
2022-08-10T08:24:05.777Z,24.80
2022-08-10T08:25:25.933Z,24.93
2022-08-10T08:27:56.542Z,24.98
2022-08-10T08:30:27.980Z,25.02
2022-08-10T08:32:57.640Z,25.06
2022-08-10T08:35:27.673Z,25.13
2022-08-10T08:38:30.249Z,25.14
2022-08-10T08:40:55.449Z,25.19
2022-08-10T08:43:40.818Z,25.30
2022-08-10T08:46:58.907Z,25.60
2022-08-10T08:50:08.156Z,25.65
2022-08-10T08:52:51.043Z,25.69
2022-08-10T08:56:04.991Z,25.62
2022-08-10T08:58:43.746Z,25.44
2022-08-10T09:01:40.257Z,25.30
2022-08-10T09:04:29.682Z,25.17
2022-08-10T09:07:58.989Z,25.44
2022-08-10T09:10:20.589Z,25.50
2022-08-10T09:12:58.849Z,25.80
2022-08-10T09:15:41.020Z,25.98
2022-08-10T09:18:20.692Z,26.13
2022-08-10T09:20:52.476Z,26.14
2022-08-10T09:24:04.745Z,26.29
2022-08-10T09:26:20.498Z,26.45
2022-08-10T09:29:00.457Z,26.47
2022-08-10T09:33:07.629Z,26.18
2022-08-10T09:36:22.798Z,26.30
2022-08-10T09:38:02.442Z,26.28
2022-08-10T09:40:59.694Z,25.86
2022-08-10T09:43:44.747Z,25.78
2022-08-10T09:46:27.423Z,25.84
2022-08-10T09:49:16.501Z,26.21
2022-08-10T09:51:58.185Z,26.37
2022-08-10T09:54:48.891Z,26.49
2022-08-10T09:57:44.147Z,26.82
2022-08-10T10:00:12.672Z,26.98
2022-08-10T10:02:52.587Z,27.16
2022-08-10T10:05:33.821Z,26.93
2022-08-10T10:08:12.147Z,26.73
2022-08-10T10:10:47.735Z,26.76
2022-08-10T10:13:52.863Z,26.99
2022-08-10T10:16:34.433Z,27.34
2022-08-10T10:19:22.167Z,27.54
2022-08-10T10:21:58.617Z,27.39
2022-08-10T10:24:40.177Z,27.31
2022-08-10T10:27:21.708Z,27.28
2022-08-10T10:29:59.358Z,27.31
2022-08-10T10:32:40.389Z,27.37
2022-08-10T10:35:24.588Z,27.63
2022-08-10T10:38:01.833Z,27.85
2022-08-10T10:40:40.803Z,28.07
2022-08-10T10:43:21.947Z,28.19
2022-08-10T10:46:04.541Z,28.15
2022-08-10T10:48:41.438Z,28.17
2022-08-10T10:51:16.355Z,27.89
2022-08-10T10:53:50.961Z,27.52
2022-08-10T10:56:30.051Z,27.60
2022-08-10T10:59:33.471Z,27.85
2022-08-10T11:02:17.615Z,28.13
2022-08-10T11:04:59.067Z,28.06
2022-08-10T11:07:35.646Z,27.93
2022-08-10T11:10:33.736Z,28.14
2022-08-10T11:14:23.546Z,28.58
2022-08-10T11:16:07.776Z,28.61
2022-08-10T11:18:55.570Z,28.75
2022-08-10T11:21:37.858Z,28.91
2022-08-10T11:24:42.822Z,28.80
2022-08-10T11:27:08.456Z,28.05
2022-08-10T11:29:58.857Z,27.93
2022-08-10T11:32:33.861Z,27.98
2022-08-10T11:35:13.070Z,28.36
2022-08-10T11:38:29.978Z,28.00
2022-08-10T11:40:45.426Z,28.52
2022-08-10T11:43:22.060Z,28.05
2022-08-10T11:46:08.137Z,28.26
2022-08-10T11:48:53.823Z,28.06
2022-08-10T11:51:34.227Z,28.25
2022-08-10T11:54:09.734Z,28.90
2022-08-10T11:56:45.887Z,29.53
2022-08-10T11:59:29.097Z,29.09
2022-08-10T12:01:59.896Z,28.95
2022-08-10T12:04:30.197Z,29.22
2022-08-10T12:07:00.347Z,29.63
2022-08-10T12:10:11.000Z,30.01
2022-08-10T12:12:19.521Z,29.88
2022-08-10T12:14:58.274Z,29.53
2022-08-10T12:17:33.417Z,28.71
2022-08-10T12:20:07.967Z,28.59
2022-08-10T12:22:44.320Z,28.69
2022-08-10T12:25:56.721Z,28.67
2022-08-10T12:28:13.824Z,28.20
2022-08-10T12:30:47.925Z,28.48
2022-08-10T12:33:24.183Z,29.27
2022-08-10T12:36:17.980Z,30.02
2022-08-10T12:38:53.275Z,30.30
2022-08-10T12:41:43.151Z,29.27
2022-08-10T12:44:17.181Z,29.31
2022-08-10T12:46:55.975Z,30.06
2022-08-10T12:49:33.196Z,30.80
2022-08-10T12:52:06.341Z,31.26
2022-08-10T12:54:37.419Z,31.30
2022-08-10T12:57:10.162Z,31.69
2022-08-10T12:59:43.376Z,31.99
2022-08-10T13:02:15.666Z,32.30
2022-08-10T13:04:46.397Z,32.81
2022-08-10T13:08:25.153Z,31.71
2022-08-10T13:10:16.350Z,31.32
2022-08-10T13:12:47.589Z,31.00
2022-08-10T13:15:48.068Z,30.53
2022-08-10T13:18:18.767Z,31.46
2022-08-10T13:20:54.084Z,32.03
2022-08-10T13:23:25.135Z,31.39
2022-08-10T13:25:56.224Z,31.05
2022-08-10T13:28:35.945Z,30.73
2022-08-10T13:31:19.141Z,31.22
2022-08-10T13:34:35.838Z,30.92
2022-08-10T13:36:42.943Z,31.51
2022-08-10T13:39:13.328Z,31.94
2022-08-10T13:41:43.562Z,32.14
2022-08-10T13:44:16.533Z,32.67
2022-08-10T13:46:52.551Z,33.04
2022-08-10T13:49:22.305Z,33.31
2022-08-10T13:51:58.142Z,33.05
2022-08-10T13:54:36.631Z,32.53
2022-08-10T13:57:06.381Z,31.79
2022-08-10T14:00:35.010Z,31.67
2022-08-10T14:02:27.959Z,32.20
2022-08-10T14:04:58.852Z,32.81
2022-08-10T14:07:30.070Z,33.27
2022-08-10T14:10:07.107Z,33.71
2022-08-10T14:12:37.682Z,34.04
2022-08-10T14:15:09.198Z,34.06
2022-08-10T14:17:44.565Z,34.35
2022-08-10T14:20:19.263Z,34.03
2022-08-10T14:22:51.120Z,34.25
2022-08-10T14:25:19.265Z,34.20
2022-08-10T14:28:02.262Z,33.82
2022-08-10T14:30:34.269Z,34.41
2022-08-10T14:33:04.828Z,34.66
2022-08-10T14:36:19.217Z,34.39
2022-08-10T14:38:32.126Z,33.12
2022-08-10T14:41:03.137Z,33.85
2022-08-10T14:43:43.196Z,34.34
2022-08-10T14:46:16.319Z,34.98
2022-08-10T14:48:47.627Z,34.79
2022-08-10T14:51:19.227Z,34.96
2022-08-10T14:53:54.400Z,35.61
2022-08-10T14:56:27.273Z,35.97
2022-08-10T14:59:06.388Z,35.81
2022-08-10T15:02:01.470Z,35.81
2022-08-10T15:04:28.719Z,35.73
2022-08-10T15:07:00.983Z,34.27
2022-08-10T15:09:59.541Z,34.42
2022-08-10T15:12:27.083Z,34.93
2022-08-10T15:15:00.744Z,35.66
2022-08-10T15:17:34.872Z,35.76
2022-08-10T15:20:13.718Z,35.77
2022-08-10T15:22:50.143Z,36.37
2022-08-10T15:25:24.636Z,36.75
2022-08-10T15:27:56.680Z,37.19
2022-08-10T15:30:30.867Z,37.27
2022-08-10T15:33:21.252Z,36.96
2022-08-10T15:36:27.535Z,37.28
2022-08-10T15:39:02.423Z,36.96
2022-08-10T15:41:58.801Z,35.65
2022-08-10T15:44:39.992Z,34.34
2022-08-10T15:47:12.408Z,34.75
2022-08-10T15:49:51.777Z,35.25
2022-08-10T15:52:39.332Z,35.15
2022-08-10T15:55:41.132Z,35.78
2022-08-10T15:58:07.950Z,35.22
2022-08-10T16:00:41.065Z,34.89
2022-08-10T16:03:15.545Z,34.62
2022-08-10T16:06:02.441Z,34.68
2022-08-10T16:08:56.667Z,35.37
2022-08-10T16:11:38.771Z,34.48
2022-08-10T16:14:14.417Z,33.92
2022-08-10T16:16:45.468Z,33.37
2022-08-10T16:19:23.764Z,32.65
2022-08-10T16:22:03.415Z,32.59
2022-08-10T16:24:52.896Z,32.36
2022-08-10T16:27:22.776Z,31.79
2022-08-10T16:29:59.091Z,31.55
2022-08-10T16:32:29.992Z,31.62
2022-08-10T16:35:00.728Z,31.54
2022-08-10T16:37:57.235Z,31.42
2022-08-10T16:40:27.002Z,31.32
2022-08-10T16:42:57.173Z,31.28
2022-08-10T16:45:34.259Z,31.26
2022-08-10T16:48:03.478Z,30.90
2022-08-10T16:50:34.755Z,30.95
2022-08-10T16:53:07.178Z,30.90
2022-08-10T16:55:47.511Z,30.77
2022-08-10T16:58:20.644Z,30.70
2022-08-10T17:00:51.361Z,30.73
2022-08-10T17:04:06.943Z,30.68
2022-08-10T17:06:22.189Z,30.59
2022-08-10T17:08:53.984Z,30.41
2022-08-10T17:11:24.479Z,30.37
2022-08-10T17:13:56.580Z,30.27
2022-08-10T17:16:28.892Z,30.18
2022-08-10T17:18:58.939Z,30.21
2022-08-10T17:21:31.611Z,30.06
2022-08-10T17:24:03.965Z,30.01
2022-08-10T17:26:37.243Z,29.98
2022-08-10T17:29:53.049Z,29.83
2022-08-10T17:32:09.542Z,29.71
2022-08-10T17:34:40.345Z,29.72
2022-08-10T17:37:18.051Z,29.65
2022-08-10T17:39:51.055Z,29.51
2022-08-10T17:42:22.117Z,29.46
2022-08-10T17:44:52.396Z,29.44
2022-08-10T17:47:27.027Z,29.36
2022-08-10T17:49:56.871Z,29.38
2022-08-10T17:52:27.463Z,29.12
2022-08-10T17:54:58.690Z,29.05
2022-08-10T17:57:28.999Z,29.05
2022-08-10T18:00:02.957Z,28.94
2022-08-10T18:02:40.303Z,28.87
2022-08-10T18:05:11.084Z,28.80
2022-08-10T18:07:44.750Z,28.69
2022-08-10T18:10:18.259Z,28.69
2022-08-10T18:12:49.125Z,28.61
2022-08-10T18:15:22.228Z,28.60
2022-08-10T18:17:59.522Z,28.48
2022-08-10T18:20:35.959Z,28.35
2022-08-10T18:23:06.077Z,28.28
2022-08-10T18:25:37.538Z,28.23
2022-08-10T18:28:12.092Z,28.20
2022-08-10T18:30:48.232Z,28.20
2022-08-10T18:33:22.086Z,28.14
2022-08-10T18:35:52.323Z,27.95
2022-08-10T18:38:22.550Z,27.90
2022-08-10T18:40:54.482Z,27.91
2022-08-10T18:44:06.010Z,27.87
2022-08-10T18:46:28.259Z,27.86
2022-08-10T18:49:01.899Z,27.81
2022-08-10T18:51:46.301Z,27.77
2022-08-10T18:54:44.143Z,27.63
2022-08-10T18:57:18.810Z,27.59
2022-08-10T19:00:08.087Z,27.51
2022-08-10T19:02:55.717Z,27.50
2022-08-10T19:05:37.137Z,27.42
2022-08-10T19:08:31.047Z,27.35
2022-08-10T19:11:05.876Z,27.35
2022-08-10T19:13:48.917Z,27.24
2022-08-10T19:16:31.338Z,27.21
2022-08-10T19:19:22.794Z,27.20
2022-08-10T19:22:03.392Z,27.08
2022-08-10T19:24:44.086Z,27.09
2022-08-10T19:27:22.985Z,27.01
2022-08-10T19:30:09.433Z,26.97
2022-08-10T19:32:52.270Z,26.83
2022-08-10T19:35:30.011Z,26.80
2022-08-10T19:38:16.808Z,26.75
2022-08-10T19:40:55.706Z,26.74
2022-08-10T19:44:00.264Z,26.72
2022-08-10T19:46:29.035Z,26.68
2022-08-10T19:49:03.641Z,26.60
2022-08-10T19:51:48.436Z,26.57
2022-08-10T19:54:26.126Z,26.43
2022-08-10T19:57:04.640Z,26.40
2022-08-10T20:00:16.600Z,26.30
2022-08-10T20:02:33.771Z,26.21
2022-08-10T20:05:06.956Z,26.25
2022-08-10T20:07:43.797Z,26.21
2022-08-10T20:10:19.795Z,26.07
2022-08-10T20:12:59.502Z,26.06
2022-08-10T20:15:41.990Z,26.03
2022-08-10T20:18:14.377Z,25.91
2022-08-10T20:20:49.552Z,25.88
2022-08-10T20:23:20.917Z,25.83
2022-08-10T20:25:56.469Z,25.88
2022-08-10T20:28:37.155Z,25.93
2022-08-10T20:31:12.602Z,25.91
2022-08-10T20:34:00.740Z,25.92
2022-08-10T20:36:33.025Z,25.86
2022-08-10T20:39:13.044Z,25.81
2022-08-10T20:41:57.948Z,25.71
2022-08-10T20:44:44.758Z,25.66
2022-08-10T20:47:18.957Z,25.59
2022-08-10T20:49:58.645Z,25.51
2022-08-10T20:52:27.307Z,25.56
2022-08-10T20:55:01.640Z,25.47
2022-08-10T20:57:55.683Z,25.49
2022-08-10T21:00:31.845Z,25.44
2022-08-10T21:03:31.703Z,25.41
2022-08-10T21:06:18.802Z,25.36
2022-08-10T21:09:02.203Z,25.33
2022-08-10T21:11:54.177Z,25.25
2022-08-10T21:14:39.538Z,25.23
2022-08-10T21:17:19.444Z,25.09
2022-08-10T21:20:09.090Z,25.06
2022-08-10T21:22:43.262Z,24.98
2022-08-10T21:25:18.892Z,24.97
2022-08-10T21:28:12.505Z,24.93
2022-08-10T21:30:53.232Z,24.89
2022-08-10T21:33:34.555Z,24.80
2022-08-10T21:36:12.599Z,24.80
2022-08-10T21:38:51.767Z,24.68
2022-08-10T21:41:57.767Z,24.57
2022-08-10T21:45:08.033Z,24.55
2022-08-10T21:48:17.249Z,24.47
2022-08-10T21:51:16.475Z,24.45
2022-08-10T21:54:17.860Z,24.40
2022-08-10T21:57:12.043Z,24.40
2022-08-10T22:00:01.073Z,24.31
2022-08-10T22:02:51.015Z,24.21
2022-08-10T22:05:44.708Z,24.13
2022-08-10T22:08:35.412Z,24.06
2022-08-10T22:11:25.234Z,24.08
2022-08-10T22:14:12.568Z,24.10
2022-08-10T22:18:00.701Z,24.04
2022-08-10T22:20:27.410Z,23.93
2022-08-10T22:23:31.345Z,23.85
2022-08-10T22:26:35.399Z,23.87
2022-08-10T22:29:26.728Z,23.74
2022-08-10T22:32:37.872Z,23.77
2022-08-10T22:35:57.368Z,23.58
2022-08-10T22:39:01.460Z,23.50
2022-08-10T22:41:56.264Z,23.54
2022-08-10T22:44:44.589Z,23.53
2022-08-10T22:47:32.735Z,23.53
2022-08-10T22:50:07.418Z,23.45
2022-08-10T22:53:03.036Z,23.47
2022-08-10T22:55:52.513Z,23.44
2022-08-10T22:58:38.169Z,23.46
2022-08-10T23:01:12.176Z,23.36
2022-08-10T23:03:52.673Z,23.26
2022-08-10T23:06:27.582Z,23.29
2022-08-10T23:09:01.430Z,23.30
2022-08-10T23:11:32.112Z,23.15
2022-08-10T23:14:04.626Z,22.98
2022-08-10T23:16:54.357Z,22.83
2022-08-10T23:19:25.658Z,22.74
2022-08-10T23:22:04.303Z,22.56
2022-08-10T23:24:43.088Z,22.51
2022-08-10T23:27:38.894Z,22.41
2022-08-10T23:30:10.534Z,22.30
2022-08-10T23:32:45.647Z,22.22
2022-08-10T23:36:30.598Z,22.16
2022-08-10T23:38:05.941Z,22.13
2022-08-10T23:40:36.465Z,22.13
2022-08-10T23:43:07.840Z,22.07
2022-08-10T23:45:53.792Z,21.97
2022-08-10T23:48:26.127Z,21.95
2022-08-10T23:50:59.299Z,21.87
2022-08-10T23:53:30.850Z,21.89
2022-08-10T23:56:04.411Z,21.85
2022-08-10T23:58:42.071Z,21.83
